createdAt,value
2019-01-29T00:00:48.603Z,6.30
2019-01-29T00:03:18.188Z,6.07
2019-01-29T00:05:47.732Z,6.10
2019-01-29T00:08:17.307Z,5.83
2019-01-29T00:10:46.825Z,5.37
2019-01-29T00:13:17.827Z,5.43
2019-01-29T00:15:47.527Z,5.47
2019-01-29T00:18:17.122Z,6.03
2019-01-29T00:20:46.823Z,5.60
2019-01-29T00:23:16.302Z,5.50
2019-01-29T00:25:45.850Z,5.40
2019-01-29T00:28:15.381Z,5.20
2019-01-29T00:30:44.948Z,5.90
2019-01-29T00:33:14.437Z,4.97
2019-01-29T00:35:43.977Z,5.63
2019-01-29T00:38:13.534Z,5.07
2019-01-29T00:40:43.042Z,4.80
2019-01-29T00:43:12.594Z,4.53
2019-01-29T00:45:42.099Z,4.53
2019-01-29T00:48:11.679Z,4.67
2019-01-29T00:50:41.195Z,4.07
2019-01-29T00:53:10.770Z,4.73
2019-01-29T00:55:40.354Z,4.47
2019-01-29T00:58:09.913Z,4.83
2019-01-29T01:00:39.471Z,4.50
2019-01-29T01:03:09.033Z,4.20
2019-01-29T01:05:38.569Z,4.37
2019-01-29T01:08:08.077Z,4.40
2019-01-29T01:10:37.639Z,3.73
2019-01-29T01:13:07.153Z,4.23
2019-01-29T01:15:36.736Z,4.57
2019-01-29T01:18:06.245Z,4.00
2019-01-29T01:20:35.745Z,4.10
2019-01-29T01:23:05.326Z,4.10
2019-01-29T01:25:34.838Z,3.73
2019-01-29T01:28:04.512Z,4.07
2019-01-29T01:30:34.133Z,3.77
2019-01-29T01:33:03.684Z,4.17
2019-01-29T01:35:33.166Z,5.70
2019-01-29T01:38:02.722Z,4.13
2019-01-29T01:40:32.229Z,4.70
2019-01-29T01:43:01.780Z,5.07
2019-01-29T01:45:31.306Z,4.57
2019-01-29T01:48:00.812Z,4.07
2019-01-29T01:50:30.334Z,5.20
2019-01-29T01:52:59.880Z,5.30
2019-01-29T01:55:29.382Z,5.53
2019-01-29T01:57:58.930Z,5.53
2019-01-29T02:00:28.548Z,5.43
2019-01-29T02:02:58.114Z,6.00
2019-01-29T02:05:27.620Z,5.63
2019-01-29T02:07:57.127Z,6.80
2019-01-29T02:10:28.940Z,5.60
2019-01-29T02:12:58.566Z,6.30
2019-01-29T02:15:28.261Z,6.13
2019-01-29T02:17:57.799Z,6.73
2019-01-29T02:20:27.425Z,5.97
2019-01-29T02:22:56.986Z,5.50
2019-01-29T02:25:26.521Z,5.80
2019-01-29T02:27:56.057Z,6.00
2019-01-29T02:30:25.802Z,5.97
2019-01-29T02:32:55.373Z,5.87
2019-01-29T02:35:24.897Z,5.93
2019-01-29T02:37:54.455Z,4.93
2019-01-29T02:40:26.093Z,5.63
2019-01-29T02:42:55.620Z,6.47
2019-01-29T02:45:25.763Z,5.83
2019-01-29T02:47:55.311Z,5.47
2019-01-29T02:50:24.823Z,5.73
2019-01-29T02:52:54.341Z,6.07
2019-01-29T02:55:24.003Z,5.70
2019-01-29T02:57:53.526Z,5.50
2019-01-29T03:00:25.402Z,5.20
2019-01-29T03:02:55.186Z,6.47
2019-01-29T03:05:25.108Z,5.10
2019-01-29T03:07:54.754Z,5.37
2019-01-29T03:10:25.986Z,6.23
2019-01-29T03:12:55.677Z,6.47
2019-01-29T03:15:30.337Z,6.33
2019-01-29T03:18:00.165Z,5.60
2019-01-29T03:20:29.722Z,5.20
2019-01-29T03:22:59.254Z,5.70
2019-01-29T03:25:29.794Z,5.77
2019-01-29T03:27:59.274Z,5.87
2019-01-29T03:30:28.929Z,5.73
2019-01-29T03:32:58.488Z,5.60
2019-01-29T03:35:28.247Z,6.63
2019-01-29T03:37:57.777Z,6.17
2019-01-29T03:40:28.642Z,6.23
2019-01-29T03:42:58.190Z,5.43
2019-01-29T03:45:27.682Z,6.20
2019-01-29T03:47:57.783Z,5.80
2019-01-29T03:50:29.156Z,5.77
2019-01-29T03:52:58.442Z,5.53
2019-01-29T03:55:27.974Z,5.67
2019-01-29T04:01:25.664Z,5.67
2019-01-29T04:03:55.241Z,5.40
2019-01-29T04:06:24.736Z,5.83
2019-01-29T04:12:22.214Z,5.23
2019-01-29T04:14:51.753Z,6.60
2019-01-29T04:17:21.262Z,5.83
2019-01-29T04:19:50.812Z,5.87
2019-01-29T04:22:20.370Z,6.00
2019-01-29T04:24:49.990Z,5.60
2019-01-29T04:40:01.064Z,5.67
2019-01-29T04:42:30.722Z,6.30
2019-01-29T04:45:00.410Z,5.50
2019-01-29T04:47:30.062Z,5.80
2019-01-29T04:49:59.766Z,5.93
2019-01-29T04:52:29.380Z,5.97
2019-01-29T04:54:59.038Z,5.60
2019-01-29T04:57:28.809Z,5.23
2019-01-29T04:59:58.437Z,5.40
2019-01-29T05:02:28.142Z,4.97
2019-01-29T05:08:27.043Z,5.20
2019-01-29T05:10:56.672Z,6.47
2019-01-29T05:13:26.247Z,5.47
2019-01-29T05:15:55.880Z,5.10
2019-01-29T05:18:25.553Z,5.13
2019-01-29T05:20:55.073Z,5.13
2019-01-29T05:23:24.682Z,5.70
2019-01-29T05:25:54.243Z,5.23
2019-01-29T05:28:23.881Z,5.27
2019-01-29T05:30:53.514Z,5.03
2019-01-29T05:33:23.088Z,5.10
2019-01-29T05:39:56.636Z,5.90
2019-01-29T05:42:26.248Z,5.30
2019-01-29T05:44:55.893Z,4.80
2019-01-29T05:47:25.490Z,5.17
2019-01-29T05:49:55.163Z,5.93
2019-01-29T05:52:24.794Z,5.70
2019-01-29T05:54:54.287Z,5.97
2019-01-29T05:57:23.941Z,6.57
2019-01-29T05:59:53.451Z,6.13
2019-01-29T06:02:22.946Z,6.20
2019-01-29T06:04:52.522Z,5.33
2019-01-29T06:07:22.050Z,5.17
2019-01-29T06:09:51.557Z,5.27
2019-01-29T06:12:21.093Z,5.63
2019-01-29T06:14:50.598Z,5.00
2019-01-29T06:17:27.393Z,5.67
2019-01-29T06:19:51.293Z,5.27
2019-01-29T06:22:23.621Z,5.47
2019-01-29T06:24:53.126Z,5.57
2019-01-29T06:27:22.694Z,6.23
2019-01-29T06:29:52.250Z,6.23
2019-01-29T06:32:21.789Z,5.40
2019-01-29T06:34:51.309Z,6.70
2019-01-29T06:37:20.835Z,6.83
2019-01-29T06:39:50.390Z,7.40
2019-01-29T06:42:19.898Z,5.90
2019-01-29T06:44:49.526Z,6.97
2019-01-29T06:47:19.039Z,7.10
2019-01-29T06:49:48.658Z,6.30
2019-01-29T06:52:18.180Z,5.87
2019-01-29T06:54:48.065Z,5.63
2019-01-29T06:57:17.614Z,5.27
2019-01-29T06:59:47.140Z,4.43
2019-01-29T07:02:16.682Z,5.87
2019-01-29T07:04:46.185Z,5.47
2019-01-29T07:07:15.741Z,4.87
2019-01-29T07:09:45.258Z,5.60
2019-01-29T07:12:14.886Z,5.67
2019-01-29T07:14:44.442Z,5.20
2019-01-29T07:17:31.836Z,6.00
2019-01-29T07:20:04.109Z,6.93
2019-01-29T07:22:33.725Z,6.57
2019-01-29T07:25:03.291Z,6.60
2019-01-29T07:27:32.825Z,13.90
2019-01-29T07:30:02.342Z,6.67
2019-01-29T07:32:32.038Z,26.00
2019-01-29T07:35:01.574Z,6.37
2019-01-29T07:37:31.113Z,6.17
2019-01-29T07:40:19.715Z,5.80
2019-01-29T07:42:49.266Z,5.63
2019-01-29T07:45:18.857Z,5.87
2019-01-29T07:47:48.440Z,6.47
2019-01-29T07:50:17.950Z,5.17
2019-01-29T07:52:47.498Z,6.00
2019-01-29T07:55:17.065Z,6.10
2019-01-29T07:57:46.656Z,5.90
2019-01-29T08:00:16.227Z,9.87
2019-01-29T08:02:45.774Z,6.67
2019-01-29T08:05:15.341Z,8.73
2019-01-29T08:07:44.903Z,6.50
2019-01-29T08:10:14.600Z,6.07
2019-01-29T08:12:44.206Z,6.50
2019-01-29T08:15:13.990Z,6.70
2019-01-29T08:17:43.538Z,6.67
2019-01-29T08:20:13.182Z,6.70
2019-01-29T08:22:42.727Z,5.87
2019-01-29T08:25:12.437Z,7.80
2019-01-29T08:27:42.077Z,6.90
2019-01-29T08:30:11.943Z,6.83
2019-01-29T08:32:41.536Z,7.13
2019-01-29T08:35:11.446Z,6.73
2019-01-29T08:37:40.968Z,6.47
2019-01-29T08:40:10.544Z,5.97
2019-01-29T08:42:40.054Z,5.07
2019-01-29T08:45:10.554Z,26.13
2019-01-29T08:47:40.096Z,6.77
2019-01-29T08:50:12.606Z,30.00
2019-01-29T08:52:42.209Z,16.63
2019-01-29T08:55:11.928Z,8.37
2019-01-29T08:57:41.560Z,7.40
2019-01-29T09:00:12.701Z,6.93
2019-01-29T09:02:42.226Z,10.23
2019-01-29T09:05:13.627Z,6.90
2019-01-29T09:07:43.205Z,7.73
2019-01-29T09:10:14.639Z,6.80
2019-01-29T09:12:44.335Z,7.33
2019-01-29T09:15:15.412Z,28.27
2019-01-29T09:17:44.925Z,7.10
2019-01-29T09:20:15.365Z,6.70
2019-01-29T09:22:44.895Z,6.37
2019-01-29T09:25:20.996Z,6.43
2019-01-29T09:27:46.172Z,6.47
2019-01-29T09:30:16.568Z,5.53
2019-01-29T09:32:46.268Z,6.57
2019-01-29T09:35:15.813Z,6.43
2019-01-29T09:37:45.336Z,6.20
2019-01-29T09:40:16.916Z,7.47
2019-01-29T09:42:46.548Z,7.60
2019-01-29T09:47:52.547Z,7.07
2019-01-29T09:50:23.078Z,7.10
2019-01-29T09:52:52.942Z,8.27
2019-01-29T09:55:29.558Z,7.87
2019-01-29T09:57:55.162Z,7.07
2019-01-29T10:00:30.043Z,7.43
2019-01-29T10:02:59.550Z,7.00
2019-01-29T10:05:29.127Z,7.13
2019-01-29T10:07:58.773Z,6.80
2019-01-29T10:10:28.298Z,7.07
2019-01-29T10:12:57.829Z,7.07
2019-01-29T10:15:28.980Z,6.07
2019-01-29T10:17:58.626Z,6.23
2019-01-29T10:20:28.450Z,6.00
2019-01-29T10:22:57.951Z,6.73
2019-01-29T10:25:27.500Z,5.60
2019-01-29T10:27:57.010Z,5.87
2019-01-29T10:30:27.210Z,6.13
2019-01-29T10:32:56.972Z,6.03
2019-01-29T10:35:28.236Z,5.57
2019-01-29T10:37:57.907Z,5.50
2019-01-29T10:40:27.994Z,4.83
2019-01-29T10:42:58.479Z,4.97
2019-01-29T10:45:29.157Z,4.90
2019-01-29T10:47:58.703Z,5.57
2019-01-29T10:50:29.025Z,5.87
2019-01-29T10:52:59.186Z,5.37
2019-01-29T10:55:28.831Z,5.00
2019-01-29T10:57:58.502Z,5.07
2019-01-29T11:00:30.954Z,5.60
2019-01-29T11:03:00.459Z,5.43
2019-01-29T11:05:30.222Z,6.00
2019-01-29T11:07:59.770Z,5.77
2019-01-29T11:10:29.306Z,5.43
2019-01-29T11:12:58.850Z,5.40
2019-01-29T11:15:33.903Z,5.30
2019-01-29T11:18:05.241Z,5.13
2019-01-29T11:20:34.742Z,5.60
2019-01-29T11:23:04.393Z,5.43
2019-01-29T11:25:33.907Z,5.97
2019-01-29T11:28:03.491Z,5.13
2019-01-29T11:30:33.326Z,5.50
2019-01-29T11:33:02.851Z,5.63
2019-01-29T11:35:32.411Z,5.17
2019-01-29T11:38:01.990Z,5.90
2019-01-29T11:40:31.917Z,5.93
2019-01-29T11:43:01.629Z,5.70
2019-01-29T11:45:36.865Z,5.73
2019-01-29T11:48:06.577Z,5.67
2019-01-29T11:50:36.119Z,4.97
2019-01-29T11:53:05.835Z,4.50
2019-01-29T11:55:35.365Z,5.13
2019-01-29T11:58:05.690Z,4.67
2019-01-29T12:00:54.626Z,4.80
2019-01-29T12:03:24.113Z,4.27
2019-01-29T12:08:28.401Z,4.27
2019-01-29T12:10:57.926Z,4.20
2019-01-29T12:13:27.577Z,4.63
2019-01-29T12:15:57.174Z,4.80
2019-01-29T12:18:26.825Z,4.60
2019-01-29T12:20:56.347Z,5.07
2019-01-29T12:23:26.233Z,5.20
2019-01-29T12:25:55.783Z,5.27
2019-01-29T12:28:25.295Z,4.73
2019-01-29T12:30:54.835Z,4.83
2019-01-29T12:33:24.366Z,3.80
2019-01-29T12:35:53.914Z,4.10
2019-01-29T12:38:23.554Z,4.03
2019-01-29T12:40:53.062Z,3.70
2019-01-29T12:43:22.607Z,3.80
2019-01-29T12:45:52.138Z,4.63
2019-01-29T12:48:21.647Z,4.80
2019-01-29T12:50:55.743Z,4.80
2019-01-29T12:53:29.659Z,4.40
2019-01-29T12:55:59.202Z,4.70
2019-01-29T12:58:28.743Z,4.40
2019-01-29T13:00:59.419Z,5.37
2019-01-29T13:03:28.898Z,4.20
2019-01-29T13:05:58.463Z,4.40
2019-01-29T13:08:28.011Z,3.73
2019-01-29T13:10:57.778Z,3.87
2019-01-29T13:13:27.513Z,3.80
2019-01-29T13:15:57.070Z,4.40
2019-01-29T13:18:26.564Z,4.27
2019-01-29T13:20:56.080Z,3.83
2019-01-29T13:23:25.655Z,3.60
2019-01-29T13:25:55.275Z,3.93
2019-01-29T13:28:24.802Z,3.27
2019-01-29T13:30:54.324Z,3.10
2019-01-29T13:33:23.910Z,3.30
2019-01-29T13:35:53.582Z,3.97
2019-01-29T13:38:23.069Z,4.00
2019-01-29T13:40:52.619Z,4.10
2019-01-29T13:43:22.146Z,3.63
2019-01-29T13:45:51.800Z,3.70
2019-01-29T13:48:21.394Z,4.10
2019-01-29T13:50:56.702Z,4.13
2019-01-29T13:53:26.235Z,3.57
2019-01-29T13:55:55.762Z,3.47
2019-01-29T13:58:25.309Z,3.73
2019-01-29T14:00:55.022Z,5.57
2019-01-29T14:03:24.531Z,3.27
2019-01-29T14:05:54.041Z,3.23
2019-01-29T14:08:23.590Z,2.97
2019-01-29T14:10:53.161Z,3.67
2019-01-29T14:13:22.722Z,3.73
2019-01-29T14:15:54.325Z,3.27
2019-01-29T14:18:25.698Z,5.50
2019-01-29T14:20:55.294Z,3.77
2019-01-29T14:23:24.854Z,6.13
2019-01-29T14:25:54.434Z,3.37
2019-01-29T14:28:23.938Z,3.40
2019-01-29T14:30:53.510Z,3.47
2019-01-29T14:33:23.123Z,3.17
2019-01-29T14:35:52.680Z,3.60
2019-01-29T14:38:58.635Z,3.00
2019-01-29T14:41:28.194Z,11.23
2019-01-29T14:43:59.270Z,3.27
2019-01-29T14:46:28.847Z,24.43
2019-01-29T14:48:58.351Z,4.17
2019-01-29T14:51:27.863Z,3.40
2019-01-29T14:53:57.490Z,3.27
2019-01-29T14:56:27.083Z,3.37
2019-01-29T14:58:56.707Z,2.77
2019-01-29T15:01:26.322Z,2.90
2019-01-29T15:03:55.831Z,3.00
2019-01-29T15:06:32.298Z,3.07
2019-01-29T15:08:56.650Z,2.57
2019-01-29T15:11:26.241Z,2.57
2019-01-29T15:13:55.750Z,2.70
2019-01-29T15:16:35.814Z,2.73
2019-01-29T15:19:08.614Z,2.83
2019-01-29T15:21:38.317Z,3.00
2019-01-29T15:24:07.841Z,3.23
2019-01-29T15:26:37.445Z,3.50
2019-01-29T15:29:07.030Z,3.63
2019-01-29T15:31:36.547Z,3.30
2019-01-29T15:34:06.126Z,3.17
2019-01-29T15:36:35.631Z,3.47
2019-01-29T15:39:08.304Z,4.10
2019-01-29T15:41:38.114Z,3.23
2019-01-29T15:44:07.847Z,3.03
2019-01-29T15:46:37.434Z,3.83
2019-01-29T15:49:07.100Z,4.03
2019-01-29T15:51:36.679Z,4.27
2019-01-29T15:54:06.595Z,4.47
2019-01-29T15:56:36.190Z,4.07
2019-01-29T15:59:05.907Z,3.50
2019-01-29T16:01:35.465Z,4.03
2019-01-29T16:04:05.099Z,3.77
2019-01-29T16:06:34.788Z,3.30
2019-01-29T16:09:06.034Z,3.60
2019-01-29T16:11:35.669Z,3.47
2019-01-29T16:14:05.478Z,3.77
2019-01-29T16:16:35.273Z,4.53
2019-01-29T16:19:04.860Z,3.83
2019-01-29T16:21:34.329Z,4.00
2019-01-29T16:24:03.990Z,3.70
2019-01-29T16:26:33.522Z,3.83
2019-01-29T16:29:03.064Z,3.73
2019-01-29T16:31:32.582Z,3.83
2019-01-29T16:34:02.191Z,4.30
2019-01-29T16:36:31.707Z,4.73
2019-01-29T16:39:01.268Z,5.00
2019-01-29T16:41:30.797Z,5.07
2019-01-29T16:44:00.357Z,4.60
2019-01-29T16:46:29.877Z,4.73
2019-01-29T16:48:59.555Z,5.33
2019-01-29T16:51:29.452Z,5.10
2019-01-29T16:53:59.396Z,6.63
2019-01-29T16:56:29.514Z,6.83
2019-01-29T16:59:01.307Z,7.10
2019-01-29T17:01:31.201Z,7.23
2019-01-29T17:04:01.213Z,8.20
2019-01-29T17:06:31.273Z,7.53
2019-01-29T17:09:01.492Z,8.47
2019-01-29T17:11:31.673Z,8.77
2019-01-29T17:25:25.459Z,4.77
2019-01-29T17:27:55.103Z,4.63
2019-01-29T17:30:38.872Z,4.60
2019-01-29T17:33:09.311Z,4.33
2019-01-29T17:35:40.290Z,4.30
2019-01-29T17:38:10.131Z,4.83
2019-01-29T17:40:55.166Z,5.07
2019-01-29T17:43:24.840Z,5.53
2019-01-29T17:45:54.325Z,5.97
2019-01-29T17:48:24.016Z,5.40
2019-01-29T17:50:53.551Z,5.93
2019-01-29T17:53:23.148Z,6.67
2019-01-29T17:55:52.670Z,6.03
2019-01-29T17:58:22.255Z,7.07
2019-01-29T18:00:55.462Z,6.33
2019-01-29T18:03:25.026Z,5.67
2019-01-29T18:05:54.554Z,6.33
2019-01-29T18:08:24.110Z,5.63
2019-01-29T18:10:53.603Z,6.80
2019-01-29T18:13:23.155Z,6.97
2019-01-29T18:15:52.695Z,10.87
2019-01-29T18:18:22.246Z,11.70
2019-01-29T18:20:51.795Z,8.87
2019-01-29T18:23:21.459Z,6.80
2019-01-29T18:25:50.975Z,5.67
2019-01-29T18:28:20.559Z,4.97
2019-01-29T18:30:50.169Z,5.07
2019-01-29T18:33:19.700Z,4.60
2019-01-29T18:35:49.407Z,4.30
2019-01-29T18:38:18.979Z,5.27
2019-01-29T18:40:51.679Z,4.30
2019-01-29T18:43:21.244Z,5.17
2019-01-29T18:45:50.908Z,5.23
2019-01-29T18:48:20.461Z,4.30
2019-01-29T18:50:50.008Z,5.53
2019-01-29T18:53:19.885Z,5.17
2019-01-29T18:55:49.452Z,5.47
2019-01-29T18:58:18.981Z,5.10
2019-01-29T19:00:54.667Z,5.40
2019-01-29T19:03:19.794Z,5.77
2019-01-29T19:05:49.370Z,9.13
2019-01-29T19:08:18.953Z,9.37
2019-01-29T19:10:48.515Z,8.63
2019-01-29T19:13:18.071Z,8.50
2019-01-29T19:16:45.347Z,8.43
2019-01-29T19:19:14.998Z,8.53
2019-01-29T19:24:19.443Z,7.40
2019-01-29T19:26:49.026Z,8.17
2019-01-29T19:29:18.555Z,8.57
2019-01-29T19:31:48.155Z,8.43
2019-01-29T19:34:17.668Z,8.23
2019-01-29T19:36:57.846Z,8.70
2019-01-29T19:39:27.386Z,9.70
2019-01-29T19:41:56.950Z,9.87
2019-01-29T19:44:26.558Z,8.97
2019-01-29T19:46:56.077Z,17.53
2019-01-29T19:49:25.633Z,11.27
2019-01-29T19:51:55.163Z,11.63
2019-01-29T19:54:24.728Z,10.53
2019-01-29T19:56:54.406Z,12.87
2019-01-29T19:59:23.969Z,10.03
2019-01-29T20:05:26.062Z,9.20
2019-01-29T20:14:53.612Z,10.07
2019-01-29T20:17:23.255Z,9.30
2019-01-29T20:19:52.786Z,11.10
2019-01-29T20:22:22.317Z,11.67
2019-01-29T20:24:51.917Z,11.70
2019-01-29T20:27:21.483Z,10.80
2019-01-29T20:29:51.107Z,11.33
2019-01-29T20:32:21.445Z,10.43
2019-01-29T20:34:51.052Z,10.93
2019-01-29T20:37:20.602Z,11.00
2019-01-29T20:39:50.474Z,10.23
2019-01-29T20:42:20.134Z,10.73
2019-01-29T20:44:49.734Z,10.00
2019-01-29T20:47:19.396Z,9.53
2019-01-29T20:49:48.980Z,10.17
2019-01-29T20:52:20.223Z,9.97
2019-01-29T20:54:49.887Z,10.07
2019-01-29T20:57:19.417Z,11.90
2019-01-29T20:59:49.119Z,12.00
2019-01-29T21:02:18.728Z,22.33
2019-01-29T21:04:48.297Z,11.50
2019-01-29T21:07:17.834Z,10.10
2019-01-29T21:09:47.562Z,9.37
2019-01-29T21:12:17.151Z,9.63
2019-01-29T21:14:49.580Z,10.27
2019-01-29T21:17:19.142Z,10.17
2019-01-29T21:19:48.702Z,10.27
2019-01-29T21:22:18.239Z,10.90
2019-01-29T21:24:47.878Z,10.27
2019-01-29T21:27:17.434Z,9.70
2019-01-29T21:29:46.980Z,10.00
2019-01-29T21:32:16.547Z,10.90
2019-01-29T21:34:46.094Z,10.97
2019-01-29T21:37:15.698Z,11.50
2019-01-29T21:39:45.216Z,11.40
2019-01-29T21:42:14.740Z,11.90
2019-01-29T21:44:44.306Z,12.33
2019-01-29T21:47:13.839Z,11.60
2019-01-29T21:49:43.394Z,12.07
2019-01-29T21:52:12.942Z,12.17
2019-01-29T21:54:42.521Z,13.20
2019-01-29T21:57:12.062Z,12.17
2019-01-29T21:59:41.667Z,12.13
2019-01-29T22:02:11.218Z,12.83
2019-01-29T22:04:40.756Z,13.00
2019-01-29T22:07:10.400Z,13.07
2019-01-29T22:09:39.923Z,11.97
2019-01-29T22:12:09.578Z,13.83
2019-01-29T22:14:39.132Z,13.30
2019-01-29T22:17:08.758Z,12.73
2019-01-29T22:19:38.318Z,12.93
2019-01-29T22:22:07.933Z,13.33
2019-01-29T22:24:37.475Z,11.77
2019-01-29T22:27:07.014Z,13.23
2019-01-29T22:29:36.654Z,13.13
2019-01-29T22:32:06.513Z,12.67
2019-01-29T22:34:36.092Z,11.87
2019-01-29T22:37:05.718Z,12.80
2019-01-29T22:39:35.311Z,12.43
2019-01-29T22:42:04.889Z,12.10
2019-01-29T22:44:34.474Z,12.37
2019-01-29T22:47:03.997Z,12.53
2019-01-29T22:49:33.534Z,12.67
2019-01-29T22:52:03.111Z,12.70
2019-01-29T22:54:32.673Z,12.57
2019-01-29T22:57:02.370Z,11.97
2019-01-29T22:59:33.476Z,11.83
2019-01-29T23:02:03.305Z,11.83
2019-01-29T23:04:36.285Z,11.83
2019-01-29T23:07:17.907Z,11.80
2019-01-29T23:09:47.511Z,10.90
2019-01-29T23:12:17.075Z,11.33
2019-01-29T23:14:46.609Z,10.90
2019-01-29T23:17:16.218Z,11.30
2019-01-29T23:19:45.792Z,11.53
2019-01-29T23:22:15.299Z,12.07
2019-01-29T23:24:44.871Z,12.33
2019-01-29T23:27:14.424Z,13.43
2019-01-29T23:29:44.080Z,13.77
2019-01-29T23:32:16.704Z,14.07
2019-01-29T23:34:46.332Z,14.70
2019-01-29T23:37:15.902Z,15.30
2019-01-29T23:39:45.466Z,14.43
2019-01-29T23:42:15.033Z,14.63
2019-01-29T23:44:44.596Z,16.27
2019-01-29T23:47:14.279Z,14.40
2019-01-29T23:49:43.814Z,16.63
2019-01-29T23:52:13.382Z,15.20
2019-01-29T23:54:42.942Z,13.97
2019-01-29T23:57:12.522Z,15.00
2019-01-29T23:59:42.078Z,15.33
